Time;durP1;ratioP1;P1;durP2;ratioP2;P2;SDS_P1;SDS_P2;PMS_P1;PMS_P2;Temp;Humidity;BMP_temperature;BMP_pressure;BME280_temperature;BME280_humidity;BME280_pressure;Samples;Min_cycle;Max_cycle;Signal;HPM_P1;HPM_P2
2021/12/15 00:00:44;;;;;;;19.40;10.10;;;;;;;0.93;81.90;98193.80;108418;1269;58879;-72
2021/12/15 00:03:15;;;;;;;19.20;10.30;;;;;;;0.92;81.88;98197.41;108231;1272;70823;-74
2021/12/15 00:05:47;;;;;;;20.00;10.60;;;;;;;0.92;81.91;98199.47;108300;1269;68783;-71
2021/12/15 00:08:17;;;;;;;20.10;10.30;;;;;;;0.92;81.92;98199.13;108276;1269;68773;-73
2021/12/15 00:10:48;;;;;;;17.80;9.80;;;;;;;0.88;81.89;98206.07;108292;1268;58878;-72
2021/12/15 00:13:20;;;;;;;23.10;13.70;;;;;;;0.88;81.97;98197.51;108135;1269;58956;-74
2021/12/15 00:15:49;;;;;;;21.60;12.10;;;;;;;0.86;81.90;98194.98;108343;1269;70562;-74
2021/12/15 00:18:18;;;;;;;24.30;12.60;;;;;;;0.84;81.96;98197.42;108180;1272;67783;-75
2021/12/15 00:20:47;;;;;;;18.90;10.10;;;;;;;0.83;82.07;98199.83;107589;1272;602098;-75
2021/12/15 00:23:19;;;;;;;15.50;8.20;;;;;;;0.84;82.00;98204.64;108208;1272;58881;-76
2021/12/15 00:25:49;;;;;;;18.30;10.10;;;;;;;0.84;82.05;98205.32;108117;1272;58967;-75
2021/12/15 00:28:21;;;;;;;18.40;10.10;;;;;;;0.83;82.08;98212.38;108128;1272;69621;-72
2021/12/15 00:30:51;;;;;;;;;;;;;;;0.81;82.00;98218.07;107995;1272;67934;-73
2021/12/15 00:33:20;;;;;;;18.80;10.80;;;;;;;0.80;82.05;98224.10;108096;1272;69384;-76
2021/12/15 00:35:50;;;;;;;17.10;9.50;;;;;;;0.79;82.03;98226.52;108030;1271;58891;-68
2021/12/15 00:38:19;;;;;;;21.20;11.00;;;;;;;0.78;82.12;98231.70;108126;1272;58881;-73
2021/12/15 00:40:49;;;;;;;18.30;9.50;;;;;;;0.79;82.07;98238.38;108130;1272;70090;-71
2021/12/15 00:43:19;;;;;;;15.60;9.60;;;;;;;0.79;82.10;98236.48;108097;1272;68464;-70
2021/12/15 00:45:49;;;;;;;17.00;10.00;;;;;;;0.80;82.11;98231.50;108142;1272;68634;-76
2021/12/15 00:48:19;;;;;;;19.10;9.50;;;;;;;0.78;82.17;98231.17;108154;1272;58954;-70
2021/12/15 00:50:49;;;;;;;23.70;12.20;;;;;;;0.78;82.23;98233.23;108029;1275;58900;-72
2021/12/15 00:53:20;;;;;;;17.00;10.00;;;;;;;0.75;82.23;98235.02;108137;1272;70606;-73
2021/12/15 00:55:49;;;;;;;19.50;10.70;;;;;;;0.76;82.18;98235.52;108058;1272;67822;-73
2021/12/15 00:58:19;;;;;;;25.70;13.10;;;;;;;0.76;82.14;98231.04;108199;1272;69444;-71
2021/12/15 01:00:56;;;;;;;19.30;9.40;;;;;;;0.77;82.25;98229.66;108112;1272;58931;-77
2021/12/15 01:03:26;;;;;;;20.80;11.10;;;;;;;0.75;82.36;98223.35;108164;1272;58878;-77
2021/12/15 01:06:04;;;;;;;22.80;13.20;;;;;;;0.76;82.35;98222.98;108163;1272;70020;-74
2021/12/15 01:08:39;;;;;;;19.50;11.40;;;;;;;0.76;82.44;98218.02;108192;1272;67972;-71
2021/12/15 01:11:28;;;;;;;21.50;11.70;;;;;;;0.73;82.42;98218.92;108137;1272;67472;-70
2021/12/15 01:19:53;;;;;;;14.90;8.70;;;;;;;0.68;82.51;98210.96;108277;1269;69960;-76
2021/12/15 01:22:28;;;;;;;18.90;10.80;;;;;;;0.69;82.50;98212.48;108355;1269;67669;-69
2021/12/15 01:25:12;;;;;;;16.10;9.20;;;;;;;0.70;82.48;98209.38;108304;1269;68611;-73
2021/12/15 01:27:43;;;;;;;18.10;10.60;;;;;;;0.71;82.48;98205.92;108094;1272;58957;-71
2021/12/15 01:30:15;;;;;;;17.10;9.70;;;;;;;0.71;82.41;98202.50;108285;1270;58856;-74
2021/12/15 01:32:45;;;;;;;16.30;9.70;;;;;;;0.73;82.37;98207.77;108325;1269;69764;-70
2021/12/15 01:35:17;;;;;;;12.90;7.70;;;;;;;0.73;82.33;98212.05;108120;1272;67600;-72
2021/12/15 01:37:48;;;;;;;19.50;11.00;;;;;;;0.73;82.37;98209.65;108215;1269;69421;-71
2021/12/15 01:40:34;;;;;;;21.60;12.10;;;;;;;0.72;82.37;98202.83;108184;1272;58884;-78
2021/12/15 01:43:18;;;;;;;19.10;11.10;;;;;;;0.69;82.34;98200.13;108264;1269;58900;-76
2021/12/15 01:48:53;;;;;;;20.00;9.90;;;;;;;0.68;82.46;98191.59;108146;1273;67872;-74
2021/12/15 01:51:24;;;;;;;15.20;7.90;;;;;;;0.68;82.50;98194.31;108345;1269;69119;-74
2021/12/15 01:53:54;;;;;;;20.50;11.20;;;;;;;0.69;82.51;98195.86;108282;1269;58839;-72
2021/12/15 01:56:24;;;;;;;20.10;11.00;;;;;;;0.70;82.49;98189.99;108249;1269;58883;-75
2021/12/15 01:58:54;;;;;;;25.20;12.60;;;;;;;0.71;82.42;98189.98;108356;1269;70791;-69
2021/12/15 02:01:24;;;;;;;24.00;13.10;;;;;;;0.71;82.48;98192.39;108123;1269;67673;-73
2021/12/15 02:03:55;;;;;;;17.70;9.50;;;;;;;0.72;82.47;98194.42;108344;1272;68436;-75
2021/12/15 02:06:42;;;;;;;17.60;9.00;;;;;;;0.72;82.54;98196.64;108122;1269;58820;-75
2021/12/15 02:09:23;;;;;;;22.30;11.30;;;;;;;0.72;82.45;98200.09;108103;1272;58910;-69
2021/12/15 02:11:53;;;;;;;;;;;;;;;0.72;82.52;98205.92;108241;1269;70972;-73
2021/12/15 02:14:22;;;;;;;23.70;11.00;;;;;;;0.70;82.48;98207.51;108156;1267;68110;-73
2021/12/15 02:16:52;;;;;;;;;;;;;;;0.67;82.48;98211.32;108223;1269;68639;-69
2021/12/15 02:19:22;;;;;;;25.70;12.30;;;;;;;0.68;82.57;98216.11;108092;1272;58919;-73
2021/12/15 02:21:53;;;;;;;22.90;13.00;;;;;;;0.66;82.65;98212.05;108132;1269;58880;-76
2021/12/15 02:24:23;;;;;;;23.90;11.20;;;;;;;0.62;82.72;98206.13;108349;1269;70623;-76
2021/12/15 02:26:58;;;;;;;19.70;10.50;;;;;;;0.60;82.69;98209.08;108307;1269;67611;-75
2021/12/15 02:29:33;;;;;;;21.30;11.20;;;;;;;0.60;82.62;98210.10;108136;1272;68731;-75
2021/12/15 02:34:57;;;;;;;20.90;10.90;;;;;;;0.60;82.65;98220.41;108326;1269;58948;-73
2021/12/15 02:37:27;;;;;;;28.50;15.40;;;;;;;0.60;82.85;98224.70;108183;1272;70730;-75
2021/12/15 02:40:02;;;;;;;24.30;13.20;;;;;;;0.57;82.87;98218.75;108105;1272;68009;-73
2021/12/15 02:42:39;;;;;;;19.90;11.40;;;;;;;0.58;82.75;98214.60;108270;1269;68477;-74
2021/12/15 02:45:13;;;;;;;20.50;10.40;;;;;;;0.58;82.77;98214.77;108303;1269;58956;-72
2021/12/15 02:47:44;;;;;;;26.90;12.60;;;;;;;0.61;82.71;98214.54;108284;1269;58887;-76
2021/12/15 02:50:15;;;;;;;;;;;;;;;0.61;82.71;98214.39;108142;1272;70744;-77
2021/12/15 02:52:45;;;;;;;24.30;11.50;;;;;;;0.61;82.77;98215.41;108320;1269;68627;-76
2021/12/15 02:55:15;;;;;;;22.50;12.20;;;;;;;0.60;83.07;98213.53;108162;1272;69328;-77
2021/12/15 02:57:45;;;;;;;;;;;;;;;0.61;82.96;98209.23;108293;1270;58954;-74
2021/12/15 03:00:23;;;;;;;21.50;10.20;;;;;;;0.62;82.79;98209.05;108296;1269;58923;-73
2021/12/15 03:08:36;;;;;;;24.00;11.60;;;;;;;0.59;82.56;98205.48;108074;1269;70770;-73
2021/12/15 03:16:43;;;;;;;25.80;12.90;;;;;;;0.62;82.74;98195.83;108307;1268;70624;-74
2021/12/15 03:19:13;;;;;;;26.70;12.40;;;;;;;0.62;82.68;98195.31;108144;1272;68655;-73
2021/12/15 03:21:43;;;;;;;18.40;9.80;;;;;;;0.61;82.62;98193.11;108309;1269;68430;-75
2021/12/15 03:24:18;;;;;;;23.40;11.30;;;;;;;0.61;82.55;98188.83;108275;1269;59350;-69
2021/12/15 03:27:10;;;;;;;26.00;13.60;;;;;;;0.60;82.60;98188.66;108339;1269;58947;-76
2021/12/15 03:35:33;;;;;;;30.00;14.30;;;;;;;0.58;82.32;98197.29;108230;1269;68976;-77
2021/12/15 03:38:02;;;;;;;26.30;13.70;;;;;;;0.53;82.31;98196.19;108146;1272;58948;-79
2021/12/15 03:40:41;;;;;;;30.20;14.90;;;;;;;0.51;82.40;98196.55;108138;1272;58830;-74
2021/12/15 03:43:14;;;;;;;25.50;12.40;;;;;;;0.49;82.47;98196.77;108239;1268;69940;-72
2021/12/15 03:45:56;;;;;;;23.40;11.30;;;;;;;0.48;82.57;98195.59;108148;1272;68662;-70
2021/12/15 03:48:30;;;;;;;21.10;12.40;;;;;;;0.46;82.49;98195.28;108300;1269;68606;-71
2021/12/15 03:51:00;;;;;;;19.30;9.50;;;;;;;0.45;82.37;98199.25;108266;1269;58969;-72
2021/12/15 03:53:30;;;;;;;22.20;12.00;;;;;;;0.45;82.42;98200.45;108171;1272;58887;-72
2021/12/15 03:55:59;;;;;;;27.90;13.80;;;;;;;0.45;82.46;98199.60;108330;1269;68839;-74
2021/12/15 03:58:29;;;;;;;24.40;12.30;;;;;;;0.45;82.35;98199.24;108299;1269;67835;-73
2021/12/15 04:01:05;;;;;;;24.90;12.50;;;;;;;0.44;82.34;98202.35;108314;1269;69457;-74
2021/12/15 04:03:39;;;;;;;22.40;12.00;;;;;;;0.44;82.31;98204.41;108238;1269;58961;-76
2021/12/15 04:06:14;;;;;;;26.50;14.30;;;;;;;0.44;82.17;98205.11;108348;1269;58877;-75
2021/12/15 04:08:45;;;;;;;26.90;13.00;;;;;;;0.35;81.44;98206.30;108150;1271;70759;-73
2021/12/15 04:11:19;;;;;;;20.20;11.10;;;;;;;0.33;81.72;98206.86;108301;1269;68446;-73
2021/12/15 04:13:51;;;;;;;22.50;12.60;;;;;;;0.31;81.68;98204.31;108325;1269;68512;-70
2021/12/15 04:19:06;;;;;;;20.90;12.70;;;;;;;0.32;81.90;98200.02;108115;1272;58957;-74
2021/12/15 04:21:37;;;;;;;25.80;15.00;;;;;;;0.32;81.87;98204.48;108076;1272;70777;-69
2021/12/15 04:24:07;;;;;;;23.20;12.80;;;;;;;0.29;81.40;98204.72;108116;1272;68673;-73
2021/12/15 04:26:36;;;;;;;20.00;9.90;;;;;;;0.28;81.65;98204.23;108135;1274;68310;-73
2021/12/15 04:29:06;;;;;;;27.40;13.80;;;;;;;0.31;81.80;98202.80;108092;1272;58917;-69
2021/12/15 04:31:40;;;;;;;19.10;10.60;;;;;;;0.30;81.49;98204.17;108113;1272;58859;-71
2021/12/15 04:34:11;;;;;;;25.30;13.50;;;;;;;0.29;81.45;98204.53;108128;1271;70889;-76
2021/12/15 04:36:42;;;;;;;;;;;;;;;0.28;81.67;98208.51;108168;1272;66870;-75
2021/12/15 04:39:16;;;;;;;24.60;12.60;;;;;;;0.29;81.45;98210.90;108133;1272;68435;-69
2021/12/15 04:41:53;;;;;;;19.80;11.20;;;;;;;0.29;81.57;98207.11;108051;1272;58893;-75
2021/12/15 04:44:26;;;;;;;21.40;12.10;;;;;;;0.31;81.63;98201.93;108237;1271;58965;-69
2021/12/15 04:47:11;;;;;;;21.50;11.70;;;;;;;0.32;81.75;98207.21;108220;1272;70607;-70
2021/12/15 04:49:48;;;;;;;20.70;11.10;;;;;;;0.33;81.69;98209.10;108166;1270;68545;-70
2021/12/15 04:52:21;;;;;;;21.80;10.90;;;;;;;0.32;81.54;98208.42;108178;1272;69749;-73
2021/12/15 04:54:50;;;;;;;25.70;13.20;;;;;;;0.31;81.72;98205.35;108116;1272;58965;-74
2021/12/15 04:57:20;;;;;;;25.00;12.80;;;;;;;0.31;81.87;98211.70;108173;1272;58906;-72
2021/12/15 04:59:51;;;;;;;25.50;13.10;;;;;;;0.31;81.60;98208.95;108138;1272;70015;-75
2021/12/15 05:02:22;;;;;;;24.70;13.10;;;;;;;0.30;81.60;98218.92;108200;1272;68672;-74
2021/12/15 05:04:53;;;;;;;24.10;13.30;;;;;;;0.28;81.85;98216.22;108120;1271;69286;-70
2021/12/15 05:07:22;;;;;;;;;;;;;;;0.29;81.88;98211.59;108134;1271;58969;-73
2021/12/15 05:09:53;;;;;;;23.00;12.20;;;;;;;0.29;81.60;98214.65;108165;1272;59313;-74
2021/12/15 05:12:23;;;;;;;21.80;12.10;;;;;;;0.27;81.65;98221.20;108183;1272;69954;-74
2021/12/15 05:14:53;;;;;;;21.20;12.10;;;;;;;0.24;81.56;98227.27;108143;1272;67718;-70
2021/12/15 05:17:23;;;;;;;23.80;13.90;;;;;;;0.24;81.71;98227.79;108174;1272;68574;-75
2021/12/15 05:19:56;;;;;;;27.80;14.90;;;;;;;0.22;81.74;98230.55;108155;1272;59290;-74
2021/12/15 05:22:26;;;;;;;20.50;11.40;;;;;;;0.20;81.57;98234.54;108164;1272;59061;-69
2021/12/15 05:24:55;;;;;;;27.80;15.40;;;;;;;0.21;81.73;98232.11;108177;1272;70283;-75
2021/12/15 05:27:24;;;;;;;23.00;13.50;;;;;;;0.22;81.88;98232.79;108128;1273;68393;-70
2021/12/15 05:29:54;;;;;;;21.40;12.70;;;;;;;0.22;81.76;98237.05;108128;1272;67714;-70
2021/12/15 05:32:24;;;;;;;24.00;14.40;;;;;;;0.22;81.67;98239.45;108124;1272;58913;-69
2021/12/15 05:34:57;;;;;;;19.90;10.70;;;;;;;0.22;81.52;98245.80;108134;1271;58891;-71
2021/12/15 05:37:29;;;;;;;24.20;14.10;;;;;;;0.22;81.67;98255.23;108072;1272;70770;-69
2021/12/15 05:40:00;;;;;;;20.00;12.20;;;;;;;0.22;81.69;98255.07;108181;1272;68765;-69
2021/12/15 05:42:29;;;;;;;31.80;18.00;;;;;;;0.22;81.66;98253.17;108220;1270;69338;-74
2021/12/15 05:44:58;;;;;;;25.30;13.60;;;;;;;0.18;81.45;98252.06;108190;1272;58925;-77
2021/12/15 05:47:27;;;;;;;26.30;14.80;;;;;;;0.18;81.57;98254.63;108026;1273;58936;-72
2021/12/15 05:49:57;;;;;;;22.90;12.90;;;;;;;0.19;81.61;98253.23;108207;1272;70778;-77
2021/12/15 05:52:29;;;;;;;26.80;16.00;;;;;;;0.21;81.63;98252.34;108132;1273;68667;-72
2021/12/15 05:55:00;;;;;;;34.00;17.00;;;;;;;0.19;81.67;98251.02;108073;1272;68720;-74
2021/12/15 05:57:29;;;;;;;27.60;14.60;;;;;;;0.17;81.70;98243.84;108145;1272;58922;-70
2021/12/15 05:59:58;;;;;;;23.90;14.10;;;;;;;0.15;81.89;98245.59;108167;1272;58947;-71
2021/12/15 06:02:27;;;;;;;28.00;12.70;;;;;;;0.15;81.84;98242.00;108132;1272;71445;-74
2021/12/15 06:04:56;;;;;;;28.30;14.90;;;;;;;0.17;81.72;98240.42;108200;1272;68280;-73
2021/12/15 06:07:25;;;;;;;27.20;13.90;;;;;;;0.15;81.97;98242.69;108110;1272;67774;-71
2021/12/15 06:09:54;;;;;;;27.30;14.00;;;;;;;0.17;81.79;98237.85;108131;1272;58964;-77
2021/12/15 06:12:23;;;;;;;30.50;15.50;;;;;;;0.17;81.87;98236.83;108147;1272;58900;-75
2021/12/15 06:14:53;;;;;;;25.50;14.70;;;;;;;0.13;81.76;98245.11;108125;1272;71336;-72
2021/12/15 06:17:25;;;;;;;30.10;13.90;;;;;;;0.14;82.09;98255.71;108072;1272;68814;-72
2021/12/15 06:19:55;;;;;;;30.80;14.70;;;;;;;0.17;82.01;98260.48;108139;1272;69472;-73
2021/12/15 06:22:27;;;;;;;29.90;14.10;;;;;;;0.17;81.97;98265.94;108264;1272;58941;-73
2021/12/15 06:24:57;;;;;;;32.20;16.00;;;;;;;0.19;82.09;98272.62;108073;1271;58922;-72
2021/12/15 06:27:29;;;;;;;29.80;12.90;;;;;;;0.18;82.08;98275.71;108075;1272;70731;-72
2021/12/15 06:29:58;;;;;;;31.40;15.00;;;;;;;0.17;82.14;98276.75;108142;1272;68391;-70
2021/12/15 06:32:27;;;;;;;27.70;15.30;;;;;;;0.15;82.20;98279.89;108117;1271;69437;-73
2021/12/15 06:34:56;;;;;;;23.50;13.50;;;;;;;0.13;82.55;98284.55;108168;1272;58914;-70
2021/12/15 06:37:26;;;;;;;26.70;13.20;;;;;;;0.13;82.47;98284.03;108288;1272;58971;-71
2021/12/15 06:39:54;;;;;;;30.00;14.20;;;;;;;0.14;82.21;98286.08;108307;1272;70975;-70
2021/12/15 06:42:23;;;;;;;32.90;16.10;;;;;;;0.14;82.18;98288.64;108150;1272;68745;-69
2021/12/15 06:44:55;;;;;;;33.50;14.20;;;;;;;0.13;82.38;98290.71;108073;1272;68721;-68
2021/12/15 06:58:17;;;;;;;28.90;14.30;;;;;;;0.09;82.64;98304.67;108074;1272;68883;-70
2021/12/15 07:00:50;;;;;;;31.30;15.80;;;;;;;0.11;82.57;98305.31;108219;1272;59414;-71
2021/12/15 07:03:21;;;;;;;33.00;14.60;;;;;;;0.12;82.48;98304.27;108202;1271;58916;-71
2021/12/15 07:05:50;;;;;;;;;;;;;;;0.16;82.45;98303.52;108093;1272;70998;-70
2021/12/15 07:08:19;;;;;;;28.10;13.60;;;;;;;0.14;82.42;98308.52;108159;1272;67907;-72
2021/12/15 07:10:52;;;;;;;31.70;14.30;;;;;;;0.13;82.41;98310.09;108084;1272;69455;-69
2021/12/15 07:13:25;;;;;;;27.90;14.70;;;;;;;0.14;82.37;98311.60;108142;1272;58913;-73
2021/12/15 07:16:03;;;;;;;26.80;14.70;;;;;;;0.13;82.22;98315.40;108210;1272;58983;-70
2021/12/15 07:18:44;;;;;;;25.10;13.90;;;;;;;0.13;82.18;98315.22;108116;1272;69999;-69
2021/12/15 07:21:20;;;;;;;27.00;13.70;;;;;;;0.14;82.14;98314.70;108312;1273;66842;-71
2021/12/15 07:23:52;;;;;;;25.20;13.10;;;;;;;0.16;82.04;98315.52;108162;1272;69513;-76
2021/12/15 07:26:22;;;;;;;24.40;14.50;;;;;;;0.16;82.01;98316.39;108129;1272;58990;-74
2021/12/15 07:28:51;;;;;;;21.10;13.30;;;;;;;0.16;81.92;98325.30;108211;1270;58842;-74
2021/12/15 07:31:21;;;;;;;26.70;13.30;;;;;;;0.15;81.92;98325.14;108108;1272;70648;-75
2021/12/15 07:33:51;;;;;;;26.30;13.20;;;;;;;0.15;81.87;98326.85;108157;1272;68525;-68
2021/12/15 07:36:20;;;;;;;24.70;14.20;;;;;;;0.13;81.79;98321.41;108131;1272;69491;-69
2021/12/15 07:38:55;;;;;;;27.20;13.60;;;;;;;0.12;81.90;98329.63;108010;1272;58983;-73
2021/12/15 07:41:30;;;;;;;23.80;13.30;;;;;;;0.12;82.03;98332.05;108106;1272;58858;-71
2021/12/15 07:44:00;;;;;;;24.80;12.80;;;;;;;0.13;82.01;98331.67;108143;1272;70873;-69
2021/12/15 07:46:50;;;;;;;22.60;11.80;;;;;;;0.14;82.14;98333.90;108097;1272;68476;-68
2021/12/15 07:49:21;;;;;;;22.00;13.10;;;;;;;0.14;82.18;98334.40;108108;1272;68675;-69
2021/12/15 07:51:59;;;;;;;19.30;11.00;;;;;;;0.16;82.11;98336.44;108167;1272;58890;-74
2021/12/15 07:54:35;;;;;;;25.90;13.40;;;;;;;0.19;82.15;98338.63;108134;1272;59348;-69
2021/12/15 07:57:09;;;;;;;24.50;12.90;;;;;;;0.18;82.16;98340.17;108066;1271;69999;-74
2021/12/15 07:59:38;;;;;;;23.70;11.50;;;;;;;0.19;82.05;98342.75;108096;1272;69096;-73
2021/12/15 08:02:07;;;;;;;24.40;12.70;;;;;;;0.20;81.91;98344.27;108108;1272;69463;-72
2021/12/15 08:04:55;;;;;;;25.10;12.60;;;;;;;0.18;81.78;98348.23;108109;1272;58964;-72
2021/12/15 08:07:23;;;;;;;28.00;14.10;;;;;;;0.16;81.81;98349.46;108106;1272;58960;-72
2021/12/15 08:09:52;;;;;;;25.80;13.10;;;;;;;0.13;81.82;98356.70;108159;1272;70575;-73
2021/12/15 08:12:23;;;;;;;24.70;11.90;;;;;;;0.13;81.74;98354.81;108098;1272;67712;-73
2021/12/15 08:14:52;;;;;;;24.80;11.90;;;;;;;0.13;81.84;98350.52;108067;1272;69396;-74
2021/12/15 08:17:21;;;;;;;25.50;14.00;;;;;;;0.13;82.00;98349.50;108119;1272;58917;-72
2021/12/15 08:19:50;;;;;;;25.30;11.80;;;;;;;0.16;81.93;98352.05;108139;1271;58952;-73
2021/12/15 08:22:19;;;;;;;20.50;11.40;;;;;;;0.19;81.81;98353.54;107560;1272;741737;-69
2021/12/15 08:24:48;;;;;;;22.70;11.50;;;;;;;0.21;81.68;98349.20;108149;1271;68883;-71
2021/12/15 08:27:22;;;;;;;24.60;13.10;;;;;;;0.25;81.62;98353.45;108125;1272;68474;-71
2021/12/15 08:29:51;;;;;;;22.60;10.70;;;;;;;0.25;81.47;98354.29;108104;1272;58976;-72
2021/12/15 08:32:21;;;;;;;30.50;15.80;;;;;;;0.27;81.54;98358.52;108112;1272;58874;-72
2021/12/15 08:34:50;;;;;;;27.50;12.50;;;;;;;0.27;81.40;98358.72;108096;1272;69125;-72
2021/12/15 08:37:19;;;;;;;21.60;12.20;;;;;;;0.28;81.34;98359.20;108121;1272;68502;-72
2021/12/15 08:39:48;;;;;;;24.30;13.30;;;;;;;0.28;81.07;98366.08;108139;1273;69452;-70
2021/12/15 08:42:17;;;;;;;20.90;10.80;;;;;;;0.26;80.94;98368.48;108048;1272;58898;-69
2021/12/15 08:44:46;;;;;;;24.60;14.00;;;;;;;0.29;81.02;98370.36;108102;1272;58951;-68
2021/12/15 08:47:15;;;;;;;21.60;12.20;;;;;;;0.26;80.63;98368.83;108085;1272;70017;-68
2021/12/15 08:49:44;;;;;;;20.60;11.60;;;;;;;0.26;80.92;98368.68;108138;1272;68402;-69
2021/12/15 08:52:13;;;;;;;19.40;10.80;;;;;;;0.27;80.97;98369.17;108132;1271;69322;-71
2021/12/15 08:54:45;;;;;;;21.70;11.40;;;;;;;0.27;80.54;98372.41;108066;1272;58986;-71
2021/12/15 08:57:14;;;;;;;19.10;10.20;;;;;;;0.24;80.48;98378.67;108114;1272;58912;-69
2021/12/15 08:59:44;;;;;;;17.90;10.00;;;;;;;0.25;80.65;98374.17;108157;1272;70569;-68
2021/12/15 09:02:13;;;;;;;20.90;11.20;;;;;;;0.27;80.59;98377.22;108196;1272;67660;-68
2021/12/15 09:04:42;;;;;;;21.90;12.70;;;;;;;0.22;80.40;98375.77;108116;1271;69281;-67
2021/12/15 09:07:12;;;;;;;20.60;12.00;;;;;;;0.19;80.36;98372.55;108076;1273;58974;-70
2021/12/15 09:09:41;;;;;;;20.70;10.90;;;;;;;0.22;80.57;98380.55;108078;1272;58877;-67
2021/12/15 09:12:10;;;;;;;17.90;9.70;;;;;;;0.22;80.26;98376.45;108086;1272;70596;-69
2021/12/15 09:14:39;;;;;;;17.90;9.80;;;;;;;0.24;80.33;98377.98;108093;1272;68427;-69
2021/12/15 09:17:08;;;;;;;19.40;10.30;;;;;;;0.27;80.44;98376.02;108116;1272;68539;-70
2021/12/15 09:19:37;;;;;;;21.70;11.00;;;;;;;0.31;80.19;98377.52;108038;1274;58852;-70
2021/12/15 09:22:07;;;;;;;18.30;10.20;;;;;;;0.29;79.88;98378.23;108105;1271;58915;-69
2021/12/15 09:24:37;;;;;;;24.20;12.30;;;;;;;0.28;80.10;98374.32;108118;1272;70588;-72
2021/12/15 09:27:06;;;;;;;22.10;11.10;;;;;;;0.24;79.94;98373.34;108112;1272;66742;-68
2021/12/15 09:29:36;;;;;;;26.60;12.20;;;;;;;0.23;80.06;98370.60;108076;1272;69427;-67
2021/12/15 09:32:05;;;;;;;;;;;;;;;0.22;80.05;98373.88;108105;1272;58843;-69
2021/12/15 09:34:36;;;;;;;22.20;11.50;;;;;;;0.23;80.04;98372.85;108017;1272;58894;-73
2021/12/15 09:37:05;;;;;;;17.80;9.10;;;;;;;0.20;80.12;98378.20;108161;1272;70576;-70
2021/12/15 09:39:35;;;;;;;16.40;8.90;;;;;;;0.21;80.43;98374.74;108135;1272;67669;-70
2021/12/15 09:42:25;;;;;;;17.00;9.10;;;;;;;0.23;80.50;98369.42;108065;1272;68455;-69
2021/12/15 09:45:02;;;;;;;20.30;10.10;;;;;;;0.27;80.50;98366.95;108076;1272;58839;-70
2021/12/15 09:47:44;;;;;;;15.60;9.70;;;;;;;0.28;80.40;98364.53;108114;1272;58882;-67
2021/12/15 09:56:38;;;;;;;21.00;10.40;;;;;;;0.29;80.48;98357.15;107650;1278;68479;-68
2021/12/15 10:10:42;;;;;;;19.50;10.40;;;;;;;0.34;80.28;98351.91;108310;1272;68626;-68
2021/12/15 10:19:18;;;;;;;13.80;8.70;;;;;;;0.42;80.40;98331.01;107732;1278;70577;-70
2021/12/15 10:22:06;;;;;;;18.20;10.40;;;;;;;0.46;80.33;98330.95;107749;1277;67842;-72
2021/12/15 10:24:58;;;;;;;18.10;8.90;;;;;;;0.50;80.18;98335.17;107932;1272;69277;-69
2021/12/15 10:27:57;;;;;;;16.00;8.90;;;;;;;0.55;80.16;98337.65;108224;1272;58942;-69
2021/12/15 10:30:32;;;;;;;17.70;8.10;;;;;;;0.57;80.28;98340.02;108267;1269;58955;-68
2021/12/15 10:33:13;;;;;;;16.70;9.20;;;;;;;0.60;80.10;98342.20;108269;1272;69787;-68
2021/12/15 10:35:51;;;;;;;19.50;10.40;;;;;;;0.60;79.95;98343.40;108139;1270;67835;-73
2021/12/15 10:38:29;;;;;;;21.10;10.50;;;;;;;0.61;80.04;98342.70;108261;1270;67665;-68
2021/12/15 10:41:11;;;;;;;25.10;12.70;;;;;;;0.60;80.14;98337.92;108316;1270;58938;-71
2021/12/15 10:43:56;;;;;;;18.00;9.00;;;;;;;0.58;80.09;98337.77;108229;1272;58973;-73
2021/12/15 10:46:34;;;;;;;28.00;13.60;;;;;;;0.61;80.26;98339.95;108236;1269;69804;-69
2021/12/15 10:49:11;;;;;;;18.30;10.00;;;;;;;0.59;80.29;98338.45;108023;1272;68547;-68
2021/12/15 10:51:47;;;;;;;21.50;12.20;;;;;;;0.61;80.08;98339.94;108328;1269;68271;-72
2021/12/15 10:54:24;;;;;;;21.40;11.40;;;;;;;0.61;79.85;98338.23;108307;1269;58954;-69
2021/12/15 10:57:19;;;;;;;23.40;12.10;;;;;;;0.57;79.69;98340.02;108067;1272;58958;-73
2021/12/15 10:59:55;;;;;;;18.80;10.30;;;;;;;0.56;79.86;98344.51;108289;1270;70565;-73
2021/12/15 11:02:39;;;;;;;17.50;9.60;;;;;;;0.57;79.66;98342.60;108270;1269;68646;-73
2021/12/15 11:05:16;;;;;;;15.20;7.80;;;;;;;0.60;79.84;98339.80;108262;1272;68473;-74
2021/12/15 11:07:52;;;;;;;18.20;10.50;;;;;;;0.62;79.72;98338.05;108258;1272;58897;-73
2021/12/15 11:10:27;;;;;;;23.70;13.20;;;;;;;0.62;79.53;98339.40;108274;1269;58864;-69
2021/12/15 11:13:03;;;;;;;28.90;14.80;;;;;;;0.59;79.57;98331.75;108280;1269;70752;-73
2021/12/15 11:15:39;;;;;;;21.90;11.50;;;;;;;0.55;79.95;98333.71;108338;1269;68456;-71
2021/12/15 11:18:31;;;;;;;22.60;11.00;;;;;;;0.55;80.07;98334.91;108270;1272;69298;-72
2021/12/15 11:21:07;;;;;;;21.40;11.80;;;;;;;0.55;80.13;98337.65;108314;1269;58829;-73
2021/12/15 11:23:40;;;;;;;22.80;11.40;;;;;;;0.56;79.90;98337.83;108131;1272;58899;-71
2021/12/15 11:26:12;;;;;;;21.80;12.40;;;;;;;0.58;79.99;98336.92;108157;1269;69801;-74
2021/12/15 11:28:48;;;;;;;16.90;8.90;;;;;;;0.56;80.00;98335.25;108332;1269;67834;-73
2021/12/15 11:31:19;;;;;;;17.10;9.00;;;;;;;0.57;80.14;98336.77;108260;1272;69281;-73
2021/12/15 11:33:54;;;;;;;22.00;11.20;;;;;;;0.58;80.13;98337.77;108299;1269;58957;-71
2021/12/15 11:36:26;;;;;;;22.90;11.70;;;;;;;0.59;80.16;98339.97;108240;1269;58925;-72
2021/12/15 11:39:11;;;;;;;20.10;11.20;;;;;;;0.61;80.01;98339.45;108353;1269;70620;-69
2021/12/15 11:41:43;;;;;;;19.80;10.20;;;;;;;0.61;79.89;98336.02;108259;1272;68640;-69
2021/12/15 11:44:24;;;;;;;22.30;10.70;;;;;;;0.61;79.83;98337.55;108457;1269;69247;-74
2021/12/15 11:47:04;;;;;;;20.50;10.00;;;;;;;0.58;79.36;98339.34;108334;1269;58961;-68
2021/12/15 11:49:40;;;;;;;28.70;14.20;;;;;;;0.56;79.33;98339.88;108264;1272;58868;-69
2021/12/15 11:52:14;;;;;;;29.70;13.40;;;;;;;0.43;79.16;98337.17;108344;1272;70261;-70
2021/12/15 11:54:48;;;;;;;22.50;13.50;;;;;;;0.41;79.58;98339.95;108319;1269;68141;-69
2021/12/15 11:57:28;;;;;;;21.40;10.80;;;;;;;0.40;79.80;98342.20;108354;1269;68624;-70
2021/12/15 12:00:11;;;;;;;23.40;13.20;;;;;;;0.38;79.76;98344.30;108503;1269;59706;-70
2021/12/15 12:02:44;;;;;;;22.80;12.60;;;;;;;0.38;79.77;98345.33;108172;1269;59675;-74
2021/12/15 12:05:26;;;;;;;22.00;11.60;;;;;;;0.37;79.69;98347.06;108266;1270;71414;-71
2021/12/15 12:08:01;;;;;;;21.70;12.00;;;;;;;0.34;79.54;98351.05;108127;1272;68512;-72
2021/12/15 12:10:44;;;;;;;21.40;11.90;;;;;;;0.34;79.78;98355.19;108078;1271;69431;-74
2021/12/15 12:13:26;;;;;;;19.80;10.30;;;;;;;0.34;79.91;98350.02;108093;1272;59764;-72
2021/12/15 12:16:04;;;;;;;19.50;11.00;;;;;;;0.35;80.04;98351.38;108119;1272;59686;-71
2021/12/15 12:18:34;;;;;;;20.90;12.20;;;;;;;0.37;80.06;98348.42;108047;1272;71413;-72
2021/12/15 12:21:07;;;;;;;20.10;10.90;;;;;;;0.39;80.11;98353.02;108076;1272;68620;-75
2021/12/15 12:23:39;;;;;;;18.00;10.60;;;;;;;0.38;80.16;98354.25;108080;1275;68634;-74
2021/12/15 12:26:10;;;;;;;15.60;8.50;;;;;;;0.36;80.23;98353.92;108041;1272;59716;-72
2021/12/15 12:28:42;;;;;;;22.20;12.20;;;;;;;0.37;80.18;98351.69;108027;1274;59713;-70
2021/12/15 12:31:21;;;;;;;22.10;12.20;;;;;;;0.32;80.11;98354.51;108147;1272;71389;-74
2021/12/15 12:33:51;;;;;;;22.70;12.20;;;;;;;0.19;80.42;98354.55;108087;1272;68672;-69
2021/12/15 12:36:27;;;;;;;15.70;8.20;;;;;;;0.18;80.44;98354.05;108087;1272;68496;-72
2021/12/15 12:38:59;;;;;;;16.40;9.20;;;;;;;0.21;80.58;98355.38;108051;1272;59754;-72
2021/12/15 12:41:36;;;;;;;19.90;10.10;;;;;;;0.26;80.63;98354.62;108096;1272;59689;-71
2021/12/15 12:44:09;;;;;;;14.90;7.70;;;;;;;0.29;80.72;98352.00;108058;1272;71548;-68
2021/12/15 12:46:48;;;;;;;22.40;11.60;;;;;;;0.27;80.33;98354.24;108081;1274;68118;-71
2021/12/15 13:01:04;;;;;;;16.50;8.70;;;;;;;0.34;80.63;98359.65;108145;1271;67022;-69
2021/12/15 13:03:44;;;;;;;13.80;7.50;;;;;;;0.34;80.77;98363.59;108147;1272;68488;-73
2021/12/15 13:06:19;;;;;;;12.10;7.50;;;;;;;0.34;80.73;98362.73;108147;1272;59695;-74